createdAt,value
2022-10-17T00:00:57.333Z,8.68
2022-10-17T00:03:59.815Z,8.66
2022-10-17T00:07:02.295Z,8.80
2022-10-17T00:10:06.351Z,8.62
2022-10-17T00:13:09.758Z,8.69
2022-10-17T00:16:12.317Z,8.69
2022-10-17T00:19:14.638Z,8.57
2022-10-17T00:22:17.066Z,8.45
2022-10-17T00:25:19.705Z,8.34
2022-10-17T00:28:22.146Z,8.41
2022-10-17T00:31:25.887Z,8.31
2022-10-17T00:34:30.044Z,8.03
2022-10-17T00:37:32.951Z,8.12
2022-10-17T00:40:35.815Z,8.06
2022-10-17T00:44:01.151Z,8.01
2022-10-17T00:47:06.836Z,7.82
2022-10-17T00:50:12.017Z,7.87
2022-10-17T00:53:15.150Z,7.91
2022-10-17T00:56:19.843Z,7.95
2022-10-17T00:59:23.166Z,8.07
2022-10-17T01:02:25.699Z,8.16
2022-10-17T01:05:29.411Z,8.16
2022-10-17T01:08:32.087Z,8.15
2022-10-17T01:11:40.263Z,8.13
2022-10-17T01:14:46.600Z,8.25
2022-10-17T01:18:14.207Z,8.33
2022-10-17T01:21:27.711Z,8.24
2022-10-17T01:24:50.311Z,8.53
2022-10-17T01:28:04.123Z,8.41
2022-10-17T01:31:14.876Z,8.18
2022-10-17T01:34:30.975Z,8.06
2022-10-17T01:37:40.926Z,7.96
2022-10-17T01:40:51.523Z,7.75
2022-10-17T01:44:21.354Z,7.55
2022-10-17T01:47:28.448Z,7.64
2022-10-17T01:50:48.626Z,7.34
2022-10-17T01:54:21.683Z,7.33
2022-10-17T01:57:31.821Z,7.50
2022-10-17T02:00:36.219Z,7.34
2022-10-17T02:03:41.262Z,7.43
2022-10-17T02:06:43.712Z,7.41
2022-10-17T02:09:48.609Z,7.46
2022-10-17T02:13:04.960Z,7.35
2022-10-17T02:16:15.365Z,7.29
2022-10-17T02:19:42.904Z,7.48
2022-10-17T02:22:51.510Z,7.30
2022-10-17T02:26:18.081Z,7.30
2022-10-17T02:29:29.256Z,7.36
2022-10-17T02:32:38.611Z,7.43
2022-10-17T02:35:44.736Z,7.48
2022-10-17T02:38:49.135Z,7.46
2022-10-17T02:41:52.521Z,7.38
2022-10-17T02:44:55.481Z,7.51
2022-10-17T02:48:16.730Z,7.64
2022-10-17T02:51:44.115Z,7.49
2022-10-17T02:54:54.032Z,7.50
2022-10-17T02:58:19.854Z,7.56
2022-10-17T03:01:22.608Z,7.48
2022-10-17T03:04:25.229Z,7.46
2022-10-17T03:07:27.594Z,7.46
2022-10-17T03:10:31.827Z,7.43
2022-10-17T03:13:36.333Z,7.42
2022-10-17T03:16:42.290Z,7.54
2022-10-17T03:19:44.631Z,7.69
2022-10-17T03:22:47.011Z,7.70
2022-10-17T03:25:49.410Z,7.75
2022-10-17T03:28:54.435Z,7.75
2022-10-17T03:31:57.927Z,7.80
2022-10-17T03:35:00.875Z,7.67
2022-10-17T03:38:03.394Z,7.72
2022-10-17T03:41:06.515Z,7.61
2022-10-17T03:44:09.168Z,7.65
2022-10-17T03:47:14.094Z,7.52
2022-10-17T03:50:17.300Z,7.49
2022-10-17T03:53:20.057Z,7.40
2022-10-17T03:56:24.157Z,7.40
2022-10-17T03:59:33.010Z,7.25
2022-10-17T04:02:40.796Z,7.23
2022-10-17T04:05:45.037Z,7.21
2022-10-17T04:08:48.132Z,7.16
2022-10-17T04:11:56.958Z,7.13
2022-10-17T04:14:59.880Z,7.16
2022-10-17T04:18:02.721Z,7.14
2022-10-17T04:21:07.117Z,7.04
2022-10-17T04:24:11.555Z,7.03
2022-10-17T04:27:34.267Z,6.95
2022-10-17T04:30:39.187Z,7.01
2022-10-17T04:33:45.069Z,7.08
2022-10-17T04:36:47.969Z,7.11
2022-10-17T04:39:50.802Z,6.96
2022-10-17T04:42:53.320Z,7.05
2022-10-17T04:46:01.324Z,7.11
2022-10-17T04:49:04.797Z,7.07
2022-10-17T04:52:07.754Z,6.87
2022-10-17T04:55:16.028Z,6.99
2022-10-17T04:58:20.088Z,6.93
2022-10-17T05:01:23.692Z,6.78
2022-10-17T05:04:28.669Z,6.91
2022-10-17T05:07:31.624Z,6.81
2022-10-17T05:10:39.513Z,6.91
2022-10-17T05:13:43.176Z,6.57
2022-10-17T05:16:46.188Z,6.11
2022-10-17T05:19:49.199Z,6.23
2022-10-17T05:22:53.732Z,6.43
2022-10-17T05:25:56.945Z,6.32
2022-10-17T05:29:02.915Z,6.36
2022-10-17T05:32:07.226Z,6.30
2022-10-17T05:35:10.699Z,6.31
2022-10-17T05:38:14.453Z,6.47
2022-10-17T05:41:19.569Z,6.46
2022-10-17T05:44:22.152Z,6.74
2022-10-17T05:47:29.784Z,6.78
2022-10-17T05:50:34.594Z,6.77
2022-10-17T05:53:42.789Z,7.02
2022-10-17T05:56:52.597Z,7.18
2022-10-17T05:59:57.192Z,7.17
2022-10-17T06:02:59.769Z,7.10
2022-10-17T06:06:11.430Z,7.03
2022-10-17T06:09:17.889Z,6.94
2022-10-17T06:12:23.256Z,7.29
2022-10-17T06:15:25.939Z,7.06
2022-10-17T06:18:36.036Z,7.18
2022-10-17T06:21:38.960Z,7.38
2022-10-17T06:24:50.200Z,7.56
2022-10-17T06:30:57.614Z,7.82
2022-10-17T06:34:00.407Z,8.17
2022-10-17T06:37:04.478Z,8.17
2022-10-17T06:40:10.407Z,8.45
2022-10-17T06:43:14.083Z,8.67
2022-10-17T06:46:42.470Z,8.83
2022-10-17T06:49:45.171Z,8.93
2022-10-17T06:53:19.971Z,9.30
2022-10-17T06:56:25.223Z,9.31
2022-10-17T06:59:35.288Z,9.64
2022-10-17T07:02:44.372Z,9.82
2022-10-17T07:05:52.309Z,10.00
2022-10-17T07:08:55.780Z,10.19
2022-10-17T07:11:59.035Z,10.41
2022-10-17T07:15:04.316Z,10.56
2022-10-17T07:18:06.858Z,10.75
2022-10-17T07:21:09.608Z,10.94
2022-10-17T07:24:15.428Z,11.15
2022-10-17T07:27:22.395Z,11.45
2022-10-17T07:30:27.310Z,11.61
2022-10-17T07:33:43.969Z,11.83
2022-10-17T07:36:46.519Z,11.98
2022-10-17T07:39:50.371Z,12.18
2022-10-17T07:42:53.101Z,12.38
2022-10-17T07:45:56.373Z,12.84
2022-10-17T07:48:59.004Z,12.97
2022-10-17T07:52:01.584Z,13.20
2022-10-17T07:55:04.328Z,13.09
2022-10-17T07:58:07.750Z,13.13
2022-10-17T08:01:15.484Z,13.39
2022-10-17T08:04:18.721Z,13.69
2022-10-17T08:07:25.534Z,13.99
2022-10-17T08:10:31.874Z,14.17
2022-10-17T08:13:34.917Z,13.96
2022-10-17T08:16:37.267Z,13.80
2022-10-17T08:19:40.483Z,14.09
2022-10-17T08:22:42.984Z,14.37
2022-10-17T08:25:45.348Z,14.51
2022-10-17T08:28:48.376Z,14.86
2022-10-17T08:31:54.100Z,14.72
2022-10-17T08:35:01.281Z,14.79
2022-10-17T08:38:03.786Z,14.86
2022-10-17T08:41:15.074Z,15.12
2022-10-17T08:44:17.486Z,15.43
2022-10-17T08:47:25.341Z,15.61
2022-10-17T08:50:27.861Z,15.77
2022-10-17T08:53:34.850Z,15.50
2022-10-17T08:56:48.951Z,15.56
2022-10-17T08:59:53.793Z,15.73
2022-10-17T09:03:17.383Z,16.08
2022-10-17T09:06:32.762Z,16.44
2022-10-17T09:09:54.413Z,16.51
2022-10-17T09:13:07.607Z,16.56
2022-10-17T09:16:13.290Z,16.67
2022-10-17T09:19:21.088Z,16.57
2022-10-17T09:22:25.521Z,16.43
2022-10-17T09:25:33.625Z,16.74
2022-10-17T09:28:38.958Z,16.97
2022-10-17T09:31:45.846Z,16.82
2022-10-17T09:34:48.404Z,17.23
2022-10-17T09:41:57.141Z,17.11
2022-10-17T09:45:18.557Z,17.40
2022-10-17T09:48:28.545Z,17.49
2022-10-17T09:51:32.365Z,17.70
2022-10-17T09:54:49.824Z,17.73
2022-10-17T09:57:55.179Z,17.63
2022-10-17T10:01:20.984Z,17.80
2022-10-17T10:04:30.184Z,18.00
2022-10-17T10:07:38.499Z,18.16
2022-10-17T10:10:43.299Z,18.14
2022-10-17T10:13:48.319Z,18.20
2022-10-17T10:16:53.581Z,18.17
2022-10-17T10:19:56.483Z,18.36
2022-10-17T10:23:15.953Z,18.60
2022-10-17T10:26:32.516Z,18.55
2022-10-17T10:29:38.200Z,18.65
2022-10-17T10:32:41.041Z,18.32
2022-10-17T10:35:52.786Z,18.71
2022-10-17T10:38:58.325Z,18.81
2022-10-17T10:42:03.701Z,19.03
2022-10-17T10:45:47.905Z,18.95
2022-10-17T10:49:00.242Z,19.29
2022-10-17T10:52:03.300Z,19.37
2022-10-17T10:55:44.798Z,19.28
2022-10-17T10:59:08.991Z,19.30
2022-10-17T11:02:24.641Z,19.41
2022-10-17T11:05:32.896Z,19.46
2022-10-17T11:08:44.601Z,19.33
2022-10-17T11:11:55.947Z,19.31
2022-10-17T11:15:01.757Z,19.44
2022-10-17T11:18:11.825Z,19.69
2022-10-17T11:21:20.047Z,19.86
2022-10-17T11:24:36.600Z,19.70
2022-10-17T11:27:39.969Z,19.92
2022-10-17T11:30:48.230Z,19.96
2022-10-17T11:33:52.531Z,20.05
2022-10-17T11:37:02.984Z,20.10
2022-10-17T11:40:23.583Z,20.11
2022-10-17T11:43:37.940Z,20.18
2022-10-17T11:46:42.382Z,20.28
2022-10-17T11:49:52.281Z,20.06
2022-10-17T11:53:00.357Z,20.04
2022-10-17T11:56:03.082Z,20.37
2022-10-17T11:59:18.087Z,20.52
2022-10-17T12:03:02.473Z,20.47
2022-10-17T12:06:10.729Z,20.57
2022-10-17T12:09:21.641Z,20.54
2022-10-17T12:12:26.005Z,20.68
2022-10-17T12:15:29.634Z,20.68
2022-10-17T12:18:32.084Z,20.52
2022-10-17T12:21:56.140Z,21.47
2022-10-17T12:25:03.216Z,22.41
2022-10-17T12:28:31.151Z,23.22
2022-10-17T12:31:34.371Z,23.73
2022-10-17T12:34:37.390Z,23.98
2022-10-17T12:37:42.885Z,24.05
2022-10-17T12:40:48.962Z,24.40
2022-10-17T12:43:52.964Z,24.11
2022-10-17T12:47:10.433Z,24.55
2022-10-17T12:50:51.071Z,24.25
2022-10-17T12:54:12.625Z,24.19
2022-10-17T12:57:39.382Z,24.15
2022-10-17T13:01:11.709Z,24.35
2022-10-17T13:04:14.402Z,24.31
2022-10-17T13:07:20.504Z,24.58
2022-10-17T13:10:29.311Z,24.69
2022-10-17T13:13:41.451Z,24.36
2022-10-17T13:17:03.629Z,24.91
2022-10-17T13:20:28.912Z,25.92
2022-10-17T13:23:36.075Z,25.49
2022-10-17T13:26:45.229Z,25.84
2022-10-17T13:29:47.751Z,25.68
2022-10-17T13:32:50.204Z,25.90
2022-10-17T13:36:00.297Z,25.60
2022-10-17T13:39:12.424Z,26.10
2022-10-17T13:42:29.887Z,26.00
2022-10-17T13:45:34.534Z,25.55
2022-10-17T13:48:37.670Z,26.02
2022-10-17T13:51:44.127Z,25.87
2022-10-17T13:54:48.659Z,25.18
2022-10-17T13:57:52.451Z,25.45
2022-10-17T14:00:55.041Z,25.61
2022-10-17T14:04:08.932Z,25.74
2022-10-17T14:07:25.656Z,25.71
2022-10-17T14:10:36.969Z,25.87
2022-10-17T14:13:39.331Z,25.83
2022-10-17T14:16:42.780Z,25.76
2022-10-17T14:19:51.457Z,26.20
2022-10-17T14:23:21.588Z,25.98
2022-10-17T14:26:23.368Z,25.98
2022-10-17T14:29:27.110Z,25.77
2022-10-17T14:32:35.569Z,25.16
2022-10-17T14:35:41.905Z,25.04
2022-10-17T14:38:47.180Z,24.86
2022-10-17T14:41:50.282Z,24.75
2022-10-17T14:44:53.974Z,24.49
2022-10-17T14:48:02.200Z,24.48
2022-10-17T14:51:12.113Z,24.30
2022-10-17T14:54:27.372Z,24.12
2022-10-17T14:57:45.062Z,24.20
2022-10-17T15:00:47.599Z,24.12
2022-10-17T15:03:50.013Z,23.70
2022-10-17T15:06:55.496Z,23.51
2022-10-17T15:09:59.734Z,23.00
2022-10-17T15:13:27.231Z,22.68
2022-10-17T15:16:31.700Z,22.19
2022-10-17T15:19:34.361Z,20.99
2022-10-17T15:22:36.982Z,20.11
2022-10-17T15:25:39.730Z,19.45
2022-10-17T15:28:42.216Z,19.27
2022-10-17T15:31:44.905Z,19.08
2022-10-17T15:34:47.294Z,18.77
2022-10-17T15:37:50.005Z,18.67
2022-10-17T15:40:52.448Z,18.46
2022-10-17T15:43:54.887Z,18.26
2022-10-17T15:46:57.370Z,17.99
2022-10-17T15:50:00.354Z,17.99
2022-10-17T15:53:02.732Z,17.88
2022-10-17T15:56:05.619Z,17.62
2022-10-17T15:59:12.827Z,17.44
2022-10-17T16:02:16.462Z,17.46
2022-10-17T16:05:25.570Z,17.12
2022-10-17T16:08:28.318Z,17.05
2022-10-17T16:11:36.256Z,17.02
2022-10-17T16:14:38.571Z,16.99
2022-10-17T16:17:41.476Z,16.80
2022-10-17T16:20:44.146Z,16.86
2022-10-17T16:23:46.681Z,16.78
2022-10-17T16:26:49.612Z,16.74
2022-10-17T16:29:52.159Z,16.78
2022-10-17T16:32:55.251Z,16.84
2022-10-17T16:35:57.879Z,16.77
2022-10-17T16:39:00.331Z,16.73
2022-10-17T16:42:02.645Z,16.28
2022-10-17T16:45:05.493Z,16.23
2022-10-17T16:48:09.040Z,16.25
2022-10-17T16:51:12.461Z,15.99
2022-10-17T16:54:15.162Z,15.65
2022-10-17T16:57:17.668Z,15.60
2022-10-17T17:00:20.193Z,15.29
2022-10-17T17:03:22.644Z,14.99
2022-10-17T17:06:27.850Z,14.85
2022-10-17T17:09:30.448Z,14.89
2022-10-17T17:12:36.177Z,14.95
2022-10-17T17:15:38.549Z,14.87
2022-10-17T17:18:41.272Z,14.77
2022-10-17T17:21:49.957Z,14.45
2022-10-17T17:24:52.461Z,14.68
2022-10-17T17:27:55.208Z,14.86
2022-10-17T17:30:58.031Z,14.95
2022-10-17T17:34:01.070Z,15.16
2022-10-17T17:37:03.486Z,15.24
2022-10-17T17:40:06.696Z,15.18
2022-10-17T17:43:09.216Z,15.05
2022-10-17T17:46:12.096Z,15.08
2022-10-17T17:49:14.448Z,14.99
2022-10-17T17:52:16.866Z,14.73
2022-10-17T17:55:19.272Z,13.95
2022-10-17T17:58:21.591Z,13.16
2022-10-17T18:01:25.438Z,12.98
2022-10-17T18:04:28.199Z,13.04
2022-10-17T18:07:30.552Z,13.29
2022-10-17T18:10:35.454Z,13.10
2022-10-17T18:13:37.815Z,13.08
2022-10-17T18:16:40.433Z,12.93
2022-10-17T18:19:42.830Z,12.96
2022-10-17T18:22:45.301Z,12.55
2022-10-17T18:26:03.383Z,12.32
2022-10-17T18:29:06.016Z,12.32
2022-10-17T18:32:08.799Z,12.30
2022-10-17T18:35:11.194Z,12.31
2022-10-17T18:38:13.590Z,12.35
2022-10-17T18:41:18.856Z,12.37
2022-10-17T18:44:21.482Z,12.22
2022-10-17T18:47:23.856Z,12.06
2022-10-17T18:50:26.246Z,11.98
2022-10-17T18:53:28.899Z,11.90
2022-10-17T18:56:31.814Z,11.65
2022-10-17T18:59:34.348Z,11.78
2022-10-17T19:02:38.065Z,11.77
2022-10-17T19:05:41.605Z,11.47
2022-10-17T19:08:44.964Z,11.65
2022-10-17T19:11:47.696Z,11.59
2022-10-17T19:14:50.884Z,11.54
2022-10-17T19:17:53.241Z,11.31
2022-10-17T19:20:55.668Z,11.32
2022-10-17T19:24:00.835Z,11.23
2022-10-17T19:27:05.183Z,11.15
2022-10-17T19:30:08.328Z,11.10
2022-10-17T19:33:10.794Z,10.89
2022-10-17T19:36:13.502Z,11.03
2022-10-17T19:39:20.988Z,11.09
2022-10-17T19:42:23.975Z,11.06
2022-10-17T19:45:26.371Z,10.98
2022-10-17T19:48:32.069Z,11.12
2022-10-17T19:51:34.743Z,11.16
2022-10-17T19:54:38.906Z,11.04
2022-10-17T19:57:41.283Z,11.03
2022-10-17T20:00:51.928Z,10.87
2022-10-17T20:03:54.915Z,10.89
2022-10-17T20:06:59.855Z,10.83
2022-10-17T20:10:02.314Z,10.83
2022-10-17T20:13:04.769Z,10.85
2022-10-17T20:16:08.905Z,10.79
2022-10-17T20:19:12.459Z,10.90
2022-10-17T20:22:14.834Z,10.69
2022-10-17T20:25:17.248Z,10.83
2022-10-17T20:28:19.776Z,10.74
2022-10-17T20:31:22.394Z,10.66
2022-10-17T20:34:25.043Z,10.78
2022-10-17T20:37:27.502Z,10.68
2022-10-17T20:40:35.827Z,10.69
2022-10-17T20:43:38.367Z,10.61
2022-10-17T20:46:48.651Z,10.47
2022-10-17T20:50:03.869Z,10.48
2022-10-17T20:53:31.775Z,10.46
2022-10-17T20:56:30.432Z,10.48
2022-10-17T20:59:34.532Z,10.45
2022-10-17T21:02:38.840Z,10.45
2022-10-17T21:05:41.362Z,10.39
2022-10-17T21:08:44.540Z,10.53
2022-10-17T21:11:48.210Z,10.49
2022-10-17T21:14:50.708Z,10.34
2022-10-17T21:17:53.312Z,9.97
2022-10-17T21:20:55.842Z,10.18
2022-10-17T21:24:01.098Z,10.14
2022-10-17T21:27:03.523Z,10.20
2022-10-17T21:33:13.783Z,10.14
2022-10-17T21:36:16.879Z,10.17
2022-10-17T21:39:19.295Z,10.16
2022-10-17T21:42:21.596Z,10.03
2022-10-17T21:45:25.773Z,10.08
2022-10-17T21:48:28.613Z,10.17
2022-10-17T21:51:30.923Z,10.06
2022-10-17T21:54:33.483Z,10.05
2022-10-17T21:57:35.785Z,10.02
2022-10-17T22:00:38.342Z,9.94
2022-10-17T22:03:45.767Z,9.91
2022-10-17T22:06:51.222Z,9.89
2022-10-17T22:09:53.736Z,9.94
2022-10-17T22:12:56.228Z,9.98
2022-10-17T22:16:02.930Z,9.93
2022-10-17T22:19:06.722Z,9.98
2022-10-17T22:22:09.489Z,9.99
2022-10-17T22:25:11.928Z,9.94
2022-10-17T22:28:14.254Z,9.94
2022-10-17T22:31:16.689Z,9.74
2022-10-17T22:34:19.236Z,9.65
2022-10-17T22:37:21.591Z,9.69
2022-10-17T22:40:26.056Z,9.70
2022-10-17T22:43:28.403Z,9.41
2022-10-17T22:46:30.799Z,9.30
2022-10-17T22:49:33.588Z,9.30
2022-10-17T22:52:35.985Z,9.29
2022-10-17T22:55:38.311Z,9.28
2022-10-17T22:58:42.935Z,9.10
2022-10-17T23:01:45.329Z,9.15
2022-10-17T23:04:47.715Z,9.05
2022-10-17T23:07:50.119Z,9.03
2022-10-17T23:10:52.818Z,8.94
2022-10-17T23:13:55.136Z,9.02
2022-10-17T23:16:57.487Z,9.19
2022-10-17T23:19:59.861Z,9.26
2022-10-17T23:23:02.223Z,8.87
2022-10-17T23:26:10.364Z,8.57
2022-10-17T23:29:12.890Z,8.51
2022-10-17T23:32:15.556Z,8.45
2022-10-17T23:35:17.975Z,8.38
2022-10-17T23:38:20.327Z,8.56
2022-10-17T23:41:22.928Z,8.74
2022-10-17T23:44:25.299Z,8.78
2022-10-17T23:47:27.784Z,8.79
2022-10-17T23:50:33.359Z,8.80
2022-10-17T23:53:39.718Z,8.70
2022-10-17T23:56:42.047Z,8.72
2022-10-17T23:59:44.391Z,8.88
